»·PEaware :: N7463L KSNA-KSBD

N7463L :: KSNA-KSBD

FLIGHT INFORMATION

Flight Status: Arrived
Operator: Privately registered:
United States
More flights under this callsign
Pilot: Anonymous 20191 (20191)
Aircraft: CESSNA 172 SKYHAWK
(C172)
More flights by this aircraft type
Origin: KSNA John Wayne-Orange Co
United States
Destination: KSBD San Bernardino Intl
United States
More flights between these airports :: More routes between these airports
Route: +SLI V8 PDZ
File this flight plan on PilotEdge
Remarks: I-4 Rating
Altitude:
(Current/Filed)
5,000ft
Speed:
(Current/Filed)
115kts
Departed: 01-Oct-18 05:24 PM
Arrived: 01-Oct-18 05:59 PM
Distance/Time
Traveled:
40nm/0:35
Distance/Time
To Go:
Arrived

Flight Plot

Page will automatically refresh every two minutes.


Map Options




Map Legend


Flown Route
Filed Route
Departure Airport
Arrival Airport
Navaid (VOR, NDB)
Fix

Horizontal Profiles

Position Reports

Time Latitude Longitude Heading Altitude Ground
Speed
01-Oct-18 17:10 33.671189 -117.868027 211 60ft 0kts
01-Oct-18 17:11 33.671189 -117.868027 211 60ft 0kts
01-Oct-18 17:12 33.671189 -117.868027 211 60ft 0kts
01-Oct-18 17:13 33.671189 -117.868027 211 60ft 0kts
01-Oct-18 17:14 33.671189 -117.868027 211 60ft 0kts
01-Oct-18 17:15 33.671189 -117.868027 211 60ft 0kts
01-Oct-18 17:16 33.671189 -117.868027 211 60ft 0kts
01-Oct-18 17:17 33.671189 -117.868027 211 60ft 0kts
01-Oct-18 17:18 33.671189 -117.868027 211 60ft 0kts
01-Oct-18 17:19 33.671141 -117.868113 257 60ft 3kts
01-Oct-18 17:20 33.672909 -117.867507 41 60ft 14kts
01-Oct-18 17:21 33.675499 -117.866202 25 60ft 12kts
01-Oct-18 17:22 33.679090 -117.863922 28 60ft 12kts
01-Oct-18 17:23 33.679988 -117.863648 293 60ft 0kts
01-Oct-18 17:24 33.679988 -117.863648 293 60ft 0kts
01-Oct-18 17:25 33.680109 -117.864042 269 60ft 10kts
01-Oct-18 17:26 33.665266 -117.875412 219 667ft 83kts
01-Oct-18 17:27 33.651757 -117.896995 229 1688ft 82kts
01-Oct-18 17:28 33.637578 -117.918410 232 2646ft 82kts
01-Oct-18 17:29 33.621519 -117.943346 230 3079ft 106kts
01-Oct-18 17:30 33.602226 -117.972488 232 3049ft 119kts
01-Oct-18 17:31 33.584684 -118.005257 265 2873ft 122kts
01-Oct-18 17:32 33.607384 -118.015132 12 3569ft 98kts
01-Oct-18 17:33 33.635000 -118.008028 8 4210ft 104kts
01-Oct-18 17:34 33.662660 -118.001988 10 4891ft 103kts
01-Oct-18 17:35 33.693066 -117.994438 11 4891ft 120kts
01-Oct-18 17:36 33.721050 -117.986880 9 4788ft 115kts
01-Oct-18 17:37 33.751077 -117.979477 12 5042ft 112kts
01-Oct-18 17:38 33.782378 -117.971308 11 5086ft 117kts
01-Oct-18 17:39 33.808112 -117.950760 64 5001ft 118kts
01-Oct-18 17:40 33.820206 -117.913471 74 5002ft 120kts
01-Oct-18 17:41 33.830221 -117.875314 71 5012ft 120kts
01-Oct-18 17:42 33.839257 -117.836743 72 4997ft 119kts
01-Oct-18 17:43 33.848889 -117.799003 72 5145ft 124kts
01-Oct-18 17:44 33.858874 -117.759552 72 5170ft 123kts
01-Oct-18 17:45 33.869261 -117.719950 70 5157ft 124kts
01-Oct-18 17:46 33.879683 -117.680352 72 5156ft 124kts
01-Oct-18 17:47 33.890011 -117.640856 67 5155ft 124kts
01-Oct-18 17:48 33.899806 -117.601131 74 5150ft 124kts
01-Oct-18 17:49 33.909999 -117.561417 71 5151ft 123kts
01-Oct-18 17:50 33.924199 -117.524171 41 5009ft 126kts
01-Oct-18 17:51 33.949805 -117.496508 41 4409ft 121kts
01-Oct-18 17:52 33.974278 -117.469463 43 4095ft 116kts
01-Oct-18 17:53 33.997159 -117.444240 41 4432ft 107kts
01-Oct-18 17:54 34.021218 -117.418072 37 3829ft 116kts
01-Oct-18 17:55 34.045802 -117.392779 44 3249ft 116kts
01-Oct-18 17:56 34.058645 -117.358607 69 3056ft 108kts
01-Oct-18 17:57 34.068650 -117.324299 72 2914ft 107kts
01-Oct-18 17:58 34.077480 -117.294730 71 2088ft 90kts
01-Oct-18 17:59 34.085453 -117.268234 70 1417ft 78kts
01-Oct-18 18:00 34.091920 -117.246272 69 1091ft 45kts
01-Oct-18 18:01 34.094191 -117.242048 358 1099ft 5kts
01-Oct-18 18:02 34.097392 -117.241942 2 1100ft 13kts
01-Oct-18 18:03 34.101205 -117.242079 337 1102ft 15kts
01-Oct-18 18:04 34.103833 -117.245533 339 1099ft 6kts

Navigation Log

Ident Type
Flight plan parsing failed, navigation log unavailable